createdAt,value
2018-11-13T00:01:23.843Z,4.95
2018-11-13T00:03:52.045Z,5.15
2018-11-13T00:06:20.216Z,4.90
2018-11-13T00:08:49.086Z,4.60
2018-11-13T00:11:17.250Z,4.80
2018-11-13T00:13:45.406Z,4.45
2018-11-13T00:16:13.582Z,4.70
2018-11-13T00:18:41.771Z,4.05
2018-11-13T00:21:09.946Z,4.50
2018-11-13T00:23:38.145Z,4.67
2018-11-13T00:26:06.322Z,4.47
2018-11-13T00:28:34.522Z,4.37
2018-11-13T00:31:02.730Z,4.60
2018-11-13T00:33:30.911Z,4.65
2018-11-13T00:35:59.101Z,5.25
2018-11-13T00:38:27.274Z,4.53
2018-11-13T00:40:55.451Z,4.67
2018-11-13T00:43:23.651Z,5.25
2018-11-13T00:45:51.864Z,4.47
2018-11-13T00:48:20.022Z,5.30
2018-11-13T00:50:48.218Z,5.55
2018-11-13T00:53:16.386Z,4.78
2018-11-13T00:55:44.561Z,5.12
2018-11-13T00:58:12.787Z,4.92
2018-11-13T01:00:40.968Z,5.20
2018-11-13T01:03:09.133Z,5.37
2018-11-13T01:05:37.348Z,4.85
2018-11-13T01:08:05.907Z,6.28
2018-11-13T01:10:34.103Z,5.35
2018-11-13T01:13:02.283Z,4.55
2018-11-13T01:15:30.482Z,4.55
2018-11-13T01:17:58.653Z,4.45
2018-11-13T01:20:26.838Z,4.33
2018-11-13T01:22:55.038Z,4.78
2018-11-13T01:25:23.219Z,4.25
2018-11-13T01:27:51.398Z,3.98
2018-11-13T01:30:19.606Z,4.37
2018-11-13T01:32:48.067Z,4.25
2018-11-13T01:35:17.317Z,4.55
2018-11-13T01:37:45.506Z,4.40
2018-11-13T01:40:16.574Z,4.70
2018-11-13T01:42:44.943Z,3.92
2018-11-13T01:45:14.158Z,3.50
2018-11-13T01:47:42.387Z,4.08
2018-11-13T01:50:10.949Z,4.08
2018-11-13T01:52:39.109Z,3.65
2018-11-13T01:55:08.949Z,3.22
2018-11-13T01:57:37.446Z,3.70
2018-11-13T02:00:15.482Z,3.98
2018-11-13T02:02:44.368Z,3.75
2018-11-13T02:05:12.578Z,3.20
2018-11-13T02:07:40.951Z,3.65
2018-11-13T02:10:09.157Z,2.98
2018-11-13T02:12:37.312Z,3.37
2018-11-13T02:15:06.600Z,3.55
2018-11-13T02:17:34.813Z,3.37
2018-11-13T02:20:03.086Z,3.40
2018-11-13T02:22:31.354Z,3.50
2018-11-13T02:24:59.514Z,3.80
2018-11-13T02:27:27.662Z,3.70
2018-11-13T02:29:55.856Z,3.60
2018-11-13T02:32:24.037Z,3.62
2018-11-13T02:34:52.229Z,3.62
2018-11-13T02:37:20.435Z,4.12
2018-11-13T02:39:48.610Z,3.42
2018-11-13T02:42:16.815Z,4.08
2018-11-13T02:44:44.987Z,4.10
2018-11-13T02:47:13.683Z,3.98
2018-11-13T02:49:42.260Z,3.12
2018-11-13T02:52:10.346Z,3.80
2018-11-13T02:54:38.560Z,3.95
2018-11-13T02:57:06.730Z,2.52
2018-11-13T02:59:34.925Z,1.70
2018-11-13T03:02:03.098Z,1.62
2018-11-13T03:04:31.298Z,1.90
2018-11-13T03:06:59.474Z,1.52
2018-11-13T03:09:27.667Z,1.30
2018-11-13T03:11:55.959Z,1.00
2018-11-13T03:14:24.150Z,1.55
2018-11-13T03:16:52.318Z,1.87
2018-11-13T03:19:20.530Z,1.50
2018-11-13T03:21:48.701Z,1.37
2018-11-13T03:24:17.790Z,1.30
2018-11-13T03:26:46.023Z,1.60
2018-11-13T03:29:14.194Z,1.32
2018-11-13T03:31:42.375Z,1.50
2018-11-13T03:34:10.562Z,1.25
2018-11-13T03:36:38.853Z,1.57
2018-11-13T03:39:08.369Z,1.57
2018-11-13T03:41:36.867Z,1.80
2018-11-13T03:44:05.622Z,1.65
2018-11-13T03:46:33.767Z,2.12
2018-11-13T03:49:01.943Z,1.92
2018-11-13T03:51:30.126Z,1.52
2018-11-13T03:53:58.302Z,2.50
2018-11-13T03:56:26.486Z,1.50
2018-11-13T03:58:54.657Z,2.40
2018-11-13T04:01:22.875Z,2.12
2018-11-13T04:03:51.566Z,2.00
2018-11-13T04:06:19.774Z,2.10
2018-11-13T04:08:48.085Z,2.10
2018-11-13T04:11:16.217Z,2.08
2018-11-13T04:13:44.397Z,2.27
2018-11-13T04:16:12.590Z,2.02
2018-11-13T04:18:40.762Z,2.10
2018-11-13T04:21:08.962Z,1.90
2018-11-13T04:23:37.145Z,1.87
2018-11-13T04:26:05.353Z,1.70
2018-11-13T04:28:33.538Z,1.77
2018-11-13T04:31:01.719Z,1.80
2018-11-13T04:33:29.903Z,1.72
2018-11-13T04:35:58.103Z,1.80
2018-11-13T04:38:26.277Z,1.80
2018-11-13T04:40:54.483Z,1.92
2018-11-13T04:43:22.646Z,1.90
2018-11-13T04:45:50.861Z,2.37
2018-11-13T04:48:19.037Z,2.62
2018-11-13T04:50:47.205Z,2.50
2018-11-13T04:53:15.390Z,2.02
2018-11-13T04:55:43.582Z,2.02
2018-11-13T04:58:11.755Z,2.55
2018-11-13T05:00:39.977Z,2.50
2018-11-13T05:03:08.268Z,2.75
2018-11-13T05:05:36.334Z,2.45
2018-11-13T05:08:04.789Z,2.95
2018-11-13T05:10:32.974Z,2.67
2018-11-13T05:13:01.095Z,3.12
2018-11-13T05:15:29.306Z,3.20
2018-11-13T05:17:57.458Z,2.98
2018-11-13T05:20:25.677Z,3.30
2018-11-13T05:22:53.886Z,3.10
2018-11-13T05:25:22.030Z,3.08
2018-11-13T05:27:50.207Z,2.90
2018-11-13T05:30:19.725Z,3.20
2018-11-13T05:32:48.247Z,2.62
2018-11-13T05:35:17.666Z,3.50
2018-11-13T05:37:46.364Z,2.80
2018-11-13T05:40:17.228Z,3.10
2018-11-13T05:42:45.377Z,2.70
2018-11-13T05:45:14.830Z,3.05
2018-11-13T05:47:43.030Z,2.95
2018-11-13T05:50:12.715Z,3.22
2018-11-13T05:52:41.629Z,2.90
2018-11-13T05:55:10.218Z,2.60
2018-11-13T05:57:38.398Z,2.70
2018-11-13T06:00:09.305Z,2.98
2018-11-13T06:02:37.657Z,2.50
2018-11-13T06:05:05.812Z,2.37
2018-11-13T06:07:34.853Z,2.77
2018-11-13T06:10:03.130Z,3.10
2018-11-13T06:12:31.222Z,2.70
2018-11-13T06:14:59.378Z,3.02
2018-11-13T06:17:27.577Z,3.17
2018-11-13T06:19:55.755Z,3.40
2018-11-13T06:22:23.949Z,2.95
2018-11-13T06:24:52.135Z,3.02
2018-11-13T06:27:20.334Z,2.92
2018-11-13T06:29:48.519Z,2.67
2018-11-13T06:32:16.698Z,3.08
2018-11-13T06:34:44.880Z,2.50
2018-11-13T06:37:13.078Z,2.83
2018-11-13T06:39:41.246Z,2.52
2018-11-13T06:42:09.451Z,2.80
2018-11-13T06:44:37.623Z,2.27
2018-11-13T06:47:06.046Z,2.12
2018-11-13T06:49:34.287Z,2.37
2018-11-13T06:52:02.402Z,2.50
2018-11-13T06:55:14.435Z,2.37
2018-11-13T06:57:42.626Z,1.98
2018-11-13T07:00:10.974Z,2.30
2018-11-13T07:02:39.514Z,2.50
2018-11-13T07:05:10.654Z,1.95
2018-11-13T07:07:38.865Z,2.12
2018-11-13T07:10:08.362Z,2.10
2018-11-13T07:12:36.558Z,2.20
2018-11-13T07:15:05.826Z,2.50
2018-11-13T07:17:34.030Z,2.08
2018-11-13T07:20:02.230Z,2.22
2018-11-13T07:22:30.402Z,1.98
2018-11-13T07:24:58.598Z,2.10
2018-11-13T07:27:27.051Z,2.00
2018-11-13T07:29:55.174Z,2.40
2018-11-13T07:32:23.362Z,2.20
2018-11-13T07:34:51.561Z,1.77
2018-11-13T07:37:19.742Z,1.50
2018-11-13T07:39:47.858Z,1.90
2018-11-13T07:42:16.006Z,2.35
2018-11-13T07:44:44.313Z,2.10
2018-11-13T07:47:12.539Z,2.00
2018-11-13T07:49:40.679Z,2.42
2018-11-13T07:52:08.846Z,2.77
2018-11-13T07:54:37.906Z,2.45
2018-11-13T07:57:07.297Z,2.42
2018-11-13T07:59:36.101Z,2.08
2018-11-13T08:02:04.272Z,3.08
2018-11-13T08:04:33.209Z,2.27
2018-11-13T08:07:01.366Z,2.27
2018-11-13T08:09:29.570Z,2.40
2018-11-13T08:11:57.749Z,3.00
2018-11-13T08:14:25.935Z,1.50
2018-11-13T08:16:54.109Z,0.98
2018-11-13T08:19:22.418Z,0.90
2018-11-13T08:21:50.626Z,1.40
2018-11-13T08:24:18.829Z,0.90
2018-11-13T08:26:46.968Z,1.05
2018-11-13T08:29:15.153Z,1.60
2018-11-13T08:31:43.333Z,1.10
2018-11-13T08:34:11.630Z,1.22
2018-11-13T08:36:39.810Z,1.40
2018-11-13T08:39:10.054Z,0.98
2018-11-13T08:41:38.241Z,1.35
2018-11-13T08:44:06.819Z,1.35
2018-11-13T08:46:34.915Z,1.22
2018-11-13T08:49:03.523Z,0.95
2018-11-13T08:51:31.788Z,0.85
2018-11-13T08:53:59.874Z,1.20
2018-11-13T08:56:28.066Z,1.00
2018-11-13T08:58:56.312Z,1.25
2018-11-13T09:01:24.668Z,0.90
2018-11-13T09:03:52.822Z,0.95
2018-11-13T09:06:21.065Z,0.68
2018-11-13T09:08:49.199Z,0.70
2018-11-13T09:11:17.448Z,1.05
2018-11-13T09:13:45.585Z,0.60
2018-11-13T09:16:13.764Z,0.53
2018-11-13T09:18:41.957Z,0.80
2018-11-13T09:21:10.130Z,0.60
2018-11-13T09:23:38.326Z,0.40
2018-11-13T09:26:06.518Z,0.40
2018-11-13T09:28:34.710Z,0.57
2018-11-13T09:31:03.155Z,0.75
2018-11-13T09:33:31.127Z,0.40
2018-11-13T09:35:59.255Z,0.40
2018-11-13T09:38:27.446Z,0.40
2018-11-13T09:40:55.666Z,0.40
2018-11-13T09:43:23.810Z,0.40
2018-11-13T09:45:52.152Z,0.40
2018-11-13T09:48:20.443Z,0.35
2018-11-13T09:50:48.739Z,0.60
2018-11-13T09:53:16.807Z,0.50
2018-11-13T09:55:45.024Z,0.40
2018-11-13T09:58:13.158Z,0.40
2018-11-13T10:00:41.486Z,0.30
2018-11-13T10:03:10.304Z,0.20
2018-11-13T10:05:37.878Z,0.30
2018-11-13T10:08:06.030Z,0.40
2018-11-13T10:10:34.296Z,0.30
2018-11-13T10:13:02.381Z,0.40
2018-11-13T10:15:31.055Z,0.40
2018-11-13T10:18:00.142Z,0.30
2018-11-13T10:20:28.273Z,0.40
2018-11-13T10:22:57.499Z,0.30
2018-11-13T10:25:25.658Z,0.20
2018-11-13T10:27:53.854Z,0.20
2018-11-13T10:30:23.180Z,0.20
2018-11-13T10:32:52.091Z,0.30
2018-11-13T10:35:21.706Z,0.30
2018-11-13T10:37:49.900Z,0.30
2018-11-13T10:40:19.661Z,0.30
2018-11-13T10:42:47.818Z,0.20
2018-11-13T10:45:19.465Z,0.17
2018-11-13T10:47:47.650Z,0.30
2018-11-13T10:50:17.961Z,0.20
2018-11-13T10:52:46.101Z,0.40
2018-11-13T10:55:14.362Z,0.20
2018-11-13T10:57:42.958Z,0.28
2018-11-13T11:00:17.881Z,0.20
2018-11-13T11:02:51.342Z,0.30
2018-11-13T11:05:19.619Z,0.20
2018-11-13T11:07:48.310Z,0.35
2018-11-13T11:10:16.498Z,0.20
2018-11-13T11:12:44.664Z,0.30
2018-11-13T11:15:12.850Z,0.20
2018-11-13T11:17:41.042Z,0.25
2018-11-13T11:20:10.786Z,0.30
2018-11-13T11:22:38.903Z,0.30
2018-11-13T11:25:08.336Z,0.30
2018-11-13T11:27:36.450Z,0.37
2018-11-13T11:30:05.237Z,0.20
2018-11-13T11:32:33.346Z,0.40
2018-11-13T11:35:01.441Z,0.30
2018-11-13T11:37:29.638Z,0.28
2018-11-13T11:39:57.842Z,0.40
2018-11-13T11:42:25.974Z,0.40
2018-11-13T11:44:54.214Z,0.30
2018-11-13T11:47:22.390Z,0.40
2018-11-13T11:49:50.539Z,0.30
2018-11-13T11:52:18.723Z,0.30
2018-11-13T11:54:46.949Z,0.30
2018-11-13T11:57:15.094Z,0.30
2018-11-13T11:59:43.297Z,0.30
2018-11-13T12:02:11.614Z,0.33
2018-11-13T12:04:39.772Z,0.30
2018-11-13T12:07:07.958Z,0.20
2018-11-13T12:09:36.053Z,0.50
2018-11-13T12:12:04.269Z,0.30
2018-11-13T12:14:32.411Z,0.40
2018-11-13T12:17:00.602Z,0.45
2018-11-13T12:19:28.814Z,0.40
2018-11-13T12:21:57.894Z,0.35
2018-11-13T12:24:26.125Z,0.40
2018-11-13T12:26:54.231Z,0.42
2018-11-13T12:29:22.350Z,1.30
2018-11-13T12:31:50.532Z,1.40
2018-11-13T12:34:18.776Z,0.70
2018-11-13T12:36:46.914Z,1.15
2018-11-13T12:39:15.102Z,0.62
2018-11-13T12:41:43.190Z,0.50
2018-11-13T12:44:11.374Z,0.70
2018-11-13T12:46:39.592Z,2.75
2018-11-13T12:49:07.754Z,0.80
2018-11-13T12:51:40.161Z,0.70
2018-11-13T12:54:08.270Z,0.60
2018-11-13T12:56:36.406Z,0.70
2018-11-13T12:59:04.593Z,0.60
2018-11-13T13:01:32.870Z,0.60
2018-11-13T13:04:00.962Z,0.65
2018-11-13T13:06:29.138Z,0.57
2018-11-13T13:08:57.346Z,0.75
2018-11-13T13:11:25.534Z,0.62
2018-11-13T13:13:59.178Z,0.45
2018-11-13T13:16:27.323Z,0.60
2018-11-13T13:18:55.561Z,0.50
2018-11-13T13:21:23.702Z,0.75
2018-11-13T13:23:51.878Z,0.75
2018-11-13T13:26:20.094Z,0.70
2018-11-13T13:28:48.366Z,0.50
2018-11-13T13:31:16.645Z,0.70
2018-11-13T13:33:44.734Z,0.40
2018-11-13T13:36:12.922Z,0.60
2018-11-13T13:38:41.105Z,0.68
2018-11-13T13:41:09.303Z,0.82
2018-11-13T13:43:37.478Z,0.60
2018-11-13T13:46:05.666Z,0.65
2018-11-13T13:48:33.856Z,0.90
2018-11-13T13:51:02.042Z,0.60
2018-11-13T13:53:30.134Z,0.80
2018-11-13T13:55:58.316Z,0.55
2018-11-13T13:58:26.720Z,0.60
2018-11-13T14:00:55.984Z,1.05
2018-11-13T14:03:23.891Z,0.85
2018-11-13T14:05:52.122Z,0.80
2018-11-13T14:08:20.596Z,1.05
2018-11-13T14:10:48.775Z,0.60
2018-11-13T14:13:17.170Z,0.75
2018-11-13T14:15:45.346Z,0.70
2018-11-13T14:18:13.852Z,0.78
2018-11-13T14:20:42.033Z,0.68
2018-11-13T14:23:10.203Z,0.70
2018-11-13T14:25:38.446Z,1.00
2018-11-13T14:28:06.569Z,0.80
2018-11-13T14:30:35.829Z,0.72
2018-11-13T14:33:05.227Z,1.00
2018-11-13T14:35:33.467Z,0.80
2018-11-13T14:38:02.015Z,0.88
2018-11-13T14:40:31.941Z,1.00
2018-11-13T14:43:01.661Z,0.85
2018-11-13T14:45:30.162Z,0.88
2018-11-13T14:47:58.563Z,0.80
2018-11-13T14:50:28.070Z,0.70
2018-11-13T14:52:56.469Z,1.00
2018-11-13T14:55:26.906Z,0.85
2018-11-13T14:57:55.493Z,0.82
2018-11-13T15:00:25.022Z,0.62
2018-11-13T15:02:53.714Z,1.02
2018-11-13T15:05:22.521Z,0.72
2018-11-13T15:07:52.090Z,0.80
2018-11-13T15:10:42.910Z,1.17
2018-11-13T15:13:11.546Z,0.75
2018-11-13T15:15:39.719Z,0.75
2018-11-13T15:18:08.031Z,0.70
2018-11-13T15:20:36.401Z,0.82
2018-11-13T15:23:05.509Z,1.20
2018-11-13T15:28:08.178Z,0.70
2018-11-13T15:30:38.910Z,0.85
2018-11-13T15:33:08.633Z,0.85
2018-11-13T15:35:36.798Z,0.80
2018-11-13T15:38:05.662Z,0.82
2018-11-13T15:40:33.786Z,0.60
2018-11-13T15:43:01.978Z,0.93
2018-11-13T15:45:30.152Z,0.90
2018-11-13T15:47:59.593Z,1.47
2018-11-13T15:50:29.910Z,0.68
2018-11-13T15:52:58.213Z,0.70
2018-11-13T15:55:26.418Z,0.72
2018-11-13T15:57:54.911Z,0.85
2018-11-13T16:00:25.405Z,1.07
2018-11-13T16:02:54.050Z,0.57
2018-11-13T16:05:25.757Z,0.88
2018-11-13T16:07:55.126Z,0.60
2018-11-13T16:10:23.515Z,0.70
2018-11-13T16:12:51.717Z,0.82
2018-11-13T16:15:21.114Z,1.10
2018-11-13T16:17:50.030Z,1.20
2018-11-13T16:20:18.405Z,0.45
2018-11-13T16:22:46.601Z,1.00
2018-11-13T16:25:14.770Z,0.82
2018-11-13T16:27:42.965Z,0.90
2018-11-13T16:30:17.268Z,0.62
2018-11-13T16:32:46.318Z,1.12
2018-11-13T16:35:15.591Z,0.82
2018-11-13T16:37:44.768Z,1.30
2018-11-13T16:40:14.854Z,0.95
2018-11-13T16:42:42.986Z,1.30
2018-11-13T16:45:12.666Z,1.05
2018-11-13T16:47:40.894Z,1.42
2018-11-13T16:50:13.030Z,1.30
2018-11-13T16:52:41.225Z,1.40
2018-11-13T16:55:09.398Z,1.55
2018-11-13T16:57:37.606Z,1.45
2018-11-13T17:00:09.652Z,1.10
2018-11-13T17:02:37.774Z,1.57
2018-11-13T17:05:08.425Z,1.62
2018-11-13T17:07:36.607Z,1.42
2018-11-13T17:10:08.016Z,1.50
2018-11-13T17:12:36.138Z,1.02
2018-11-13T17:15:04.603Z,1.00
2018-11-13T17:17:33.287Z,1.02
2018-11-13T17:20:01.439Z,1.20
2018-11-13T17:22:29.614Z,1.15
2018-11-13T17:24:57.788Z,1.55
2018-11-13T17:27:26.132Z,1.42
2018-11-13T17:29:54.342Z,0.93
2018-11-13T17:32:22.466Z,1.20
2018-11-13T17:34:50.651Z,1.35
2018-11-13T17:37:18.858Z,1.27
2018-11-13T17:39:47.014Z,1.25
2018-11-13T17:42:15.211Z,1.60
2018-11-13T17:44:43.391Z,1.87
2018-11-13T17:47:11.490Z,1.95
2018-11-13T17:49:39.681Z,2.33
2018-11-13T17:52:07.874Z,2.65
2018-11-13T17:54:36.451Z,2.90
2018-11-13T17:57:05.209Z,2.75
2018-11-13T17:59:33.390Z,2.87
2018-11-13T18:02:01.514Z,2.75
2018-11-13T18:04:29.708Z,2.75
2018-11-13T18:06:58.158Z,2.77
2018-11-13T18:09:26.348Z,1.92
2018-11-13T18:11:54.469Z,2.35
2018-11-13T18:14:22.678Z,2.22
2018-11-13T18:16:50.957Z,2.40
2018-11-13T18:19:19.133Z,2.10
2018-11-13T18:21:47.417Z,2.55
2018-11-13T18:24:15.510Z,2.52
2018-11-13T18:26:43.691Z,2.47
2018-11-13T18:29:11.886Z,2.47
2018-11-13T18:31:40.058Z,2.95
2018-11-13T18:34:08.265Z,3.17
2018-11-13T18:36:36.442Z,2.70
2018-11-13T18:39:07.172Z,2.50
2018-11-13T18:41:35.001Z,2.90
2018-11-13T18:44:03.162Z,2.80
2018-11-13T18:46:31.329Z,3.22
2018-11-13T18:48:59.530Z,2.40
2018-11-13T18:51:27.823Z,2.40
2018-11-13T18:53:56.014Z,1.92
2018-11-13T18:56:24.315Z,1.92
2018-11-13T18:58:52.478Z,2.10
2018-11-13T19:01:20.578Z,3.08
2018-11-13T19:03:48.778Z,2.67
2018-11-13T19:06:16.941Z,2.90
2018-11-13T19:08:45.147Z,4.33
2018-11-13T19:11:13.417Z,6.53
2018-11-13T19:13:41.517Z,12.68
2018-11-13T19:16:10.291Z,15.15
2018-11-13T19:18:38.395Z,11.95
2018-11-13T19:21:06.586Z,10.93
2018-11-13T19:23:34.766Z,7.12
2018-11-13T19:26:02.878Z,4.33
2018-11-13T19:28:31.049Z,3.70
2018-11-13T19:30:59.241Z,3.42
2018-11-13T19:33:27.404Z,3.50
2018-11-13T19:35:55.655Z,2.58
2018-11-13T19:38:23.777Z,2.52
2018-11-13T19:40:51.979Z,2.50
2018-11-13T19:43:20.187Z,2.95
2018-11-13T19:45:48.548Z,2.77
2018-11-13T19:48:16.738Z,2.98
2018-11-13T19:50:44.920Z,3.02
2018-11-13T19:53:13.148Z,3.35
2018-11-13T19:55:41.315Z,2.83
2018-11-13T19:58:09.473Z,2.60
2018-11-13T20:00:38.607Z,2.58
2018-11-13T20:03:08.137Z,2.40
2018-11-13T20:05:36.299Z,2.40
2018-11-13T20:08:04.850Z,2.80
2018-11-13T20:10:33.965Z,2.30
2018-11-13T20:13:03.318Z,2.58
2018-11-13T20:15:32.233Z,2.92
2018-11-13T20:18:00.389Z,2.77
2018-11-13T20:20:29.841Z,2.47
2018-11-13T20:22:58.925Z,2.85
2018-11-13T20:25:28.446Z,2.60
2018-11-13T20:27:56.633Z,2.33
2018-11-13T20:30:28.104Z,2.60
2018-11-13T20:32:56.302Z,2.77
2018-11-13T20:35:24.555Z,2.65
2018-11-13T20:37:53.378Z,2.98
2018-11-13T20:40:23.921Z,2.92
2018-11-13T20:42:53.338Z,2.47
2018-11-13T20:45:21.525Z,2.52
2018-11-13T20:47:49.721Z,3.40
2018-11-13T20:50:19.227Z,3.20
2018-11-13T20:52:47.637Z,3.58
2018-11-13T20:55:15.822Z,3.12
2018-11-13T20:57:43.994Z,3.37
2018-11-13T21:00:16.798Z,3.80
2018-11-13T21:02:45.085Z,3.87
2018-11-13T21:05:13.570Z,3.40
2018-11-13T21:07:41.793Z,3.65
2018-11-13T21:10:14.216Z,3.60
2018-11-13T21:12:43.058Z,3.80
2018-11-13T21:15:13.381Z,3.42
2018-11-13T21:17:41.576Z,3.83
2018-11-13T21:20:11.923Z,3.37
2018-11-13T21:22:40.301Z,3.77
2018-11-13T21:25:10.229Z,4.08
2018-11-13T21:27:38.425Z,3.65
2018-11-13T21:30:09.625Z,3.65
2018-11-13T21:32:37.658Z,3.77
2018-11-13T21:35:06.107Z,4.12
2018-11-13T21:37:34.304Z,3.90
2018-11-13T21:40:02.417Z,3.30
2018-11-13T21:42:30.610Z,3.90
2018-11-13T21:44:58.791Z,3.60
2018-11-13T21:47:26.994Z,4.12
2018-11-13T21:49:55.189Z,4.40
2018-11-13T21:52:23.363Z,5.50
2018-11-13T21:54:51.560Z,4.65
2018-11-13T21:57:19.745Z,4.17
2018-11-13T21:59:47.926Z,5.15
2018-11-13T22:02:16.110Z,5.70
2018-11-13T22:04:46.063Z,5.05
2018-11-13T22:07:14.206Z,4.45
2018-11-13T22:09:42.622Z,3.87
2018-11-13T22:12:10.778Z,3.60
2018-11-13T22:14:39.008Z,3.70
2018-11-13T22:17:07.277Z,3.72
2018-11-13T22:19:35.458Z,3.92
2018-11-13T22:22:03.622Z,3.30
2018-11-13T22:24:31.726Z,3.47
2018-11-13T22:26:59.926Z,4.05
2018-11-13T22:29:28.101Z,4.53
2018-11-13T22:31:56.334Z,3.45
2018-11-13T22:34:24.470Z,3.17
2018-11-13T22:36:52.646Z,3.60
2018-11-13T22:39:20.853Z,3.10
2018-11-13T22:41:49.058Z,3.10
2018-11-13T22:44:17.246Z,3.33
2018-11-13T22:46:45.396Z,3.87
2018-11-13T22:49:13.637Z,3.40
2018-11-13T22:51:41.775Z,4.12
2018-11-13T22:54:09.969Z,4.17
2018-11-13T22:56:38.142Z,3.83
2018-11-13T22:59:06.358Z,3.72
2018-11-13T23:01:34.539Z,3.33
2018-11-13T23:04:02.726Z,3.72
2018-11-13T23:06:30.886Z,3.62
2018-11-13T23:08:59.096Z,3.10
2018-11-13T23:11:27.267Z,3.70
2018-11-13T23:13:55.478Z,3.47
2018-11-13T23:16:23.665Z,3.50
2018-11-13T23:18:51.778Z,3.70
2018-11-13T23:21:19.911Z,3.37
2018-11-13T23:23:48.123Z,3.87
2018-11-13T23:26:16.277Z,3.37
2018-11-13T23:28:44.488Z,3.65
2018-11-13T23:31:12.651Z,3.08
2018-11-13T23:33:40.846Z,3.02
2018-11-13T23:36:09.095Z,3.10
2018-11-13T23:38:37.234Z,3.17
2018-11-13T23:41:05.579Z,3.55
2018-11-13T23:43:33.693Z,2.85
2018-11-13T23:46:01.895Z,3.80
2018-11-13T23:48:30.068Z,3.77
2018-11-13T23:50:58.257Z,3.90
2018-11-13T23:53:26.446Z,4.00
2018-11-13T23:55:54.634Z,3.80
2018-11-13T23:58:22.818Z,3.90
